sensor_id;sensor_type;location;lat;lon;timestamp;pressure;altitude;pressure_sealevel;temperature;humidity
45403;BME280;47427;51.976;5.326;2023-02-19T00:00:06;101711.13;;;8.86;100.00
45403;BME280;47427;51.976;5.326;2023-02-19T00:03:41;101702.25;;;8.82;100.00
45403;BME280;47427;51.976;5.326;2023-02-19T00:07:17;101695.00;;;8.77;100.00
45403;BME280;47427;51.976;5.326;2023-02-19T00:10:45;101703.97;;;8.82;100.00
45403;BME280;47427;51.976;5.326;2023-02-19T00:14:20;101710.97;;;8.83;100.00
45403;BME280;47427;51.976;5.326;2023-02-19T00:17:43;101712.84;;;8.85;100.00
45403;BME280;47427;51.976;5.326;2023-02-19T00:21:15;101715.47;;;8.85;100.00
45403;BME280;47427;51.976;5.326;2023-02-19T00:24:40;101712.84;;;8.85;100.00
45403;BME280;47427;51.976;5.326;2023-02-19T00:28:04;101722.34;;;8.83;100.00
45403;BME280;47427;51.976;5.326;2023-02-19T00:31:31;101716.97;;;8.80;100.00
45403;BME280;47427;51.976;5.326;2023-02-19T00:35:14;101712.56;;;8.79;100.00
45403;BME280;47427;51.976;5.326;2023-02-19T00:38:42;101718.34;;;8.72;100.00
45403;BME280;47427;51.976;5.326;2023-02-19T00:46:25;101721.97;;;8.76;100.00
45403;BME280;47427;51.976;5.326;2023-02-19T00:49:50;101709.00;;;8.59;100.00
45403;BME280;47427;51.976;5.326;2023-02-19T00:53:12;101727.22;;;8.58;100.00
45403;BME280;47427;51.976;5.326;2023-02-19T00:56:37;101723.06;;;8.61;100.00
45403;BME280;47427;51.976;5.326;2023-02-19T01:00:12;101719.47;;;8.59;100.00
45403;BME280;47427;51.976;5.326;2023-02-19T01:04:12;101732.31;;;8.55;100.00
45403;BME280;47427;51.976;5.326;2023-02-19T01:07:42;101725.53;;;8.58;100.00
45403;BME280;47427;51.976;5.326;2023-02-19T01:11:06;101735.38;;;8.64;100.00
45403;BME280;47427;51.976;5.326;2023-02-19T01:14:30;101732.53;;;8.59;100.00
45403;BME280;47427;51.976;5.326;2023-02-19T01:33:09;101753.69;;;8.64;100.00
45403;BME280;47427;51.976;5.326;2023-02-19T01:36:57;101745.75;;;8.62;100.00
45403;BME280;47427;51.976;5.326;2023-02-19T01:40:28;101760.81;;;8.66;100.00
45403;BME280;47427;51.976;5.326;2023-02-19T01:47:43;101758.03;;;8.63;100.00
45403;BME280;47427;51.976;5.326;2023-02-19T01:51:13;101768.41;;;8.62;100.00
45403;BME280;47427;51.976;5.326;2023-02-19T01:54:45;101763.84;;;8.58;100.00
45403;BME280;47427;51.976;5.326;2023-02-19T01:58:33;101752.34;;;8.54;100.00
45403;BME280;47427;51.976;5.326;2023-02-19T02:01:59;101762.28;;;8.61;100.00
45403;BME280;47427;51.976;5.326;2023-02-19T02:06:00;101759.69;;;8.61;100.00
45403;BME280;47427;51.976;5.326;2023-02-19T02:09:39;101759.59;;;8.60;100.00
45403;BME280;47427;51.976;5.326;2023-02-19T02:13:19;101755.09;;;8.57;100.00
45403;BME280;47427;51.976;5.326;2023-02-19T02:36:53;101770.19;;;8.63;100.00
45403;BME280;47427;51.976;5.326;2023-02-19T02:40:20;101769.31;;;8.62;100.00
45403;BME280;47427;51.976;5.326;2023-02-19T02:43:50;101759.97;;;8.50;100.00
45403;BME280;47427;51.976;5.326;2023-02-19T02:47:11;101763.69;;;8.55;100.00
45403;BME280;47427;51.976;5.326;2023-02-19T02:54:42;101782.63;;;8.49;100.00
45403;BME280;47427;51.976;5.326;2023-02-19T02:58:26;101785.47;;;8.54;100.00
45403;BME280;47427;51.976;5.326;2023-02-19T03:02:19;101787.84;;;8.49;100.00
45403;BME280;47427;51.976;5.326;2023-02-19T03:05:44;101789.78;;;8.53;100.00
45403;BME280;47427;51.976;5.326;2023-02-19T03:09:34;101792.56;;;8.56;100.00
45403;BME280;47427;51.976;5.326;2023-02-19T03:13:18;101787.91;;;8.51;100.00
45403;BME280;47427;51.976;5.326;2023-02-19T03:17:50;101805.69;;;8.58;100.00
45403;BME280;47427;51.976;5.326;2023-02-19T03:21:53;101804.81;;;8.57;100.00
45403;BME280;47427;51.976;5.326;2023-02-19T03:25:35;101813.50;;;8.56;100.00
45403;BME280;47427;51.976;5.326;2023-02-19T03:29:30;101809.16;;;8.57;100.00
45403;BME280;47427;51.976;5.326;2023-02-19T03:36:43;101815.03;;;8.53;100.00
45403;BME280;47427;51.976;5.326;2023-02-19T03:40:07;101806.22;;;8.51;100.00
45403;BME280;47427;51.976;5.326;2023-02-19T03:52:00;101826.25;;;8.50;100.00
45403;BME280;47427;51.976;5.326;2023-02-19T04:00:03;101837.59;;;8.51;100.00
45403;BME280;47427;51.976;5.326;2023-02-19T04:03:40;101835.81;;;8.50;100.00
45403;BME280;47427;51.976;5.326;2023-02-19T04:07:06;101841.03;;;8.50;100.00
45403;BME280;47427;51.976;5.326;2023-02-19T04:10:37;101833.84;;;8.45;100.00
45403;BME280;47427;51.976;5.326;2023-02-19T04:14:11;101852.41;;;8.50;100.00
45403;BME280;47427;51.976;5.326;2023-02-19T04:18:01;101854.78;;;8.45;100.00
45403;BME280;47427;51.976;5.326;2023-02-19T04:21:47;101858.38;;;8.48;100.00
45403;BME280;47427;51.976;5.326;2023-02-19T04:25:13;101864.50;;;8.48;100.00
45403;BME280;47427;51.976;5.326;2023-02-19T04:28:38;101868.97;;;8.51;100.00
45403;BME280;47427;51.976;5.326;2023-02-19T04:32:04;101867.19;;;8.50;100.00
45403;BME280;47427;51.976;5.326;2023-02-19T04:35:26;101866.38;;;8.51;100.00
45403;BME280;47427;51.976;5.326;2023-02-19T04:38:51;101871.53;;;8.49;100.00
45403;BME280;47427;51.976;5.326;2023-02-19T04:42:16;101878.56;;;8.50;100.00
45403;BME280;47427;51.976;5.326;2023-02-19T04:45:42;101894.19;;;8.49;100.00
45403;BME280;47427;51.976;5.326;2023-02-19T04:49:17;101905.53;;;8.49;100.00
45403;BME280;47427;51.976;5.326;2023-02-19T04:52:43;101910.69;;;8.48;100.00
45403;BME280;47427;51.976;5.326;2023-02-19T04:56:16;101910.63;;;8.46;100.00
45403;BME280;47427;51.976;5.326;2023-02-19T04:59:40;101926.38;;;8.48;100.00
45403;BME280;47427;51.976;5.326;2023-02-19T05:03:04;101928.19;;;8.49;100.00
45403;BME280;47427;51.976;5.326;2023-02-19T05:06:42;101930.72;;;8.47;100.00
45403;BME280;47427;51.976;5.326;2023-02-19T05:13:37;101937.88;;;8.35;100.00
45403;BME280;47427;51.976;5.326;2023-02-19T05:17:05;101928.16;;;8.32;100.00
45403;BME280;47427;51.976;5.326;2023-02-19T05:20:27;101947.34;;;8.33;100.00
45403;BME280;47427;51.976;5.326;2023-02-19T05:23:54;101953.31;;;8.30;100.00
45403;BME280;47427;51.976;5.326;2023-02-19T05:27:19;101950.69;;;8.30;100.00
45403;BME280;47427;51.976;5.326;2023-02-19T05:30:40;101961.34;;;8.33;100.00
45403;BME280;47427;51.976;5.326;2023-02-19T05:34:11;101958.53;;;8.30;100.00
45403;BME280;47427;51.976;5.326;2023-02-19T05:37:41;101947.34;;;8.33;100.00
45403;BME280;47427;51.976;5.326;2023-02-19T05:41:20;101949.97;;;8.33;100.00
45403;BME280;47427;51.976;5.326;2023-02-19T05:45:14;101952.56;;;8.33;100.00
45403;BME280;47427;51.976;5.326;2023-02-19T05:48:55;101952.50;;;8.31;100.00
45403;BME280;47427;51.976;5.326;2023-02-19T05:52:38;101954.41;;;8.34;100.00
45403;BME280;47427;51.976;5.326;2023-02-19T06:00:01;101961.25;;;8.32;100.00
45403;BME280;47427;51.976;5.326;2023-02-19T06:03:25;101972.44;;;8.29;100.00
45403;BME280;47427;51.976;5.326;2023-02-19T06:07:01;101974.22;;;8.30;100.00
45403;BME280;47427;51.976;5.326;2023-02-19T06:10:25;101980.19;;;8.28;100.00
45403;BME280;47427;51.976;5.326;2023-02-19T06:13:57;101970.41;;;8.23;100.00
45403;BME280;47427;51.976;5.326;2023-02-19T06:17:32;101972.28;;;8.26;100.00
45403;BME280;47427;51.976;5.326;2023-02-19T06:21:07;101990.59;;;8.26;100.00
45403;BME280;47427;51.976;5.326;2023-02-19T06:24:32;102003.66;;;8.26;100.00
45403;BME280;47427;51.976;5.326;2023-02-19T06:28:19;102017.63;;;8.27;100.00
45403;BME280;47427;51.976;5.326;2023-02-19T06:31:50;102027.25;;;8.28;100.00
45403;BME280;47427;51.976;5.326;2023-02-19T06:35:11;102020.09;;;8.23;100.00
45403;BME280;47427;51.976;5.326;2023-02-19T06:38:57;102031.53;;;8.25;100.00
45403;BME280;47427;51.976;5.326;2023-02-19T06:47:10;102033.94;;;8.22;100.00
45403;BME280;47427;51.976;5.326;2023-02-19T06:50:42;102027.03;;;8.23;100.00
45403;BME280;47427;51.976;5.326;2023-02-19T06:54:30;102035.41;;;8.17;100.00
45403;BME280;47427;51.976;5.326;2023-02-19T06:57:57;102040.59;;;8.16;100.00
45403;BME280;47427;51.976;5.326;2023-02-19T07:01:34;102052.81;;;8.17;100.00
45403;BME280;47427;51.976;5.326;2023-02-19T07:05:24;102060.66;;;8.17;100.00
45403;BME280;47427;51.976;5.326;2023-02-19T07:08:58;102055.38;;;8.15;100.00
45403;BME280;47427;51.976;5.326;2023-02-19T07:12:41;102066.06;;;8.20;100.00
45403;BME280;47427;51.976;5.326;2023-02-19T07:16:11;102075.78;;;8.22;100.00
45403;BME280;47427;51.976;5.326;2023-02-19T07:19:49;102078.50;;;8.24;100.00
45403;BME280;47427;51.976;5.326;2023-02-19T07:23:18;102097.69;;;8.24;100.00
45403;BME280;47427;51.976;5.326;2023-02-19T07:26:43;102088.97;;;8.24;100.00
45403;BME280;47427;51.976;5.326;2023-02-19T07:30:09;102090.09;;;8.29;100.00
45403;BME280;47427;51.976;5.326;2023-02-19T07:33:38;102102.91;;;8.39;100.00
45403;BME280;47427;51.976;5.326;2023-02-19T07:37:14;102103.50;;;8.50;100.00
45403;BME280;47427;51.976;5.326;2023-02-19T07:41:13;102120.34;;;8.55;100.00
45403;BME280;47427;51.976;5.326;2023-02-19T07:44:45;102119.03;;;8.47;100.00
45403;BME280;47427;51.976;5.326;2023-02-19T07:48:18;102118.59;;;8.39;100.00
45403;BME280;47427;51.976;5.326;2023-02-19T07:51:53;102125.16;;;8.48;100.00
45403;BME280;47427;51.976;5.326;2023-02-19T07:55:28;102136.13;;;8.57;100.00
45403;BME280;47427;51.976;5.326;2023-02-19T07:58:49;102145.97;;;8.61;100.00
45403;BME280;47427;51.976;5.326;2023-02-19T08:02:33;102144.50;;;8.66;100.00
45403;BME280;47427;51.976;5.326;2023-02-19T08:06:16;102145.97;;;8.61;100.00
45403;BME280;47427;51.976;5.326;2023-02-19T08:10:04;102148.06;;;8.52;100.00
45403;BME280;47427;51.976;5.326;2023-02-19T08:13:51;102146.03;;;8.62;100.00
45403;BME280;47427;51.976;5.326;2023-02-19T08:17:16;102158.53;;;8.68;100.00
45403;BME280;47427;51.976;5.326;2023-02-19T08:20:37;102155.16;;;8.54;100.00
45403;BME280;47427;51.976;5.326;2023-02-19T08:23:59;102164.63;;;8.52;100.00
45403;BME280;47427;51.976;5.326;2023-02-19T08:27:32;102178.44;;;8.50;100.00
45403;BME280;47427;51.976;5.326;2023-02-19T08:31:09;102168.00;;;8.50;100.00
45403;BME280;47427;51.976;5.326;2023-02-19T08:34:42;102183.22;;;8.57;100.00
45403;BME280;47427;51.976;5.326;2023-02-19T08:38:05;102181.28;;;8.69;100.00
45403;BME280;47427;51.976;5.326;2023-02-19T08:41:26;102197.72;;;8.66;100.00
45403;BME280;47427;51.976;5.326;2023-02-19T08:45:04;102196.50;;;8.76;100.00
45403;BME280;47427;51.976;5.326;2023-02-19T08:48:37;102224.94;;;8.70;100.00
45403;BME280;47427;51.976;5.326;2023-02-19T08:52:10;102202.47;;;8.74;100.00
45403;BME280;47427;51.976;5.326;2023-02-19T08:56:12;102216.94;;;8.83;100.00
45403;BME280;47427;51.976;5.326;2023-02-19T08:59:33;102207.72;;;8.74;100.00
45403;BME280;47427;51.976;5.326;2023-02-19T09:03:07;102217.44;;;8.76;100.00
45403;BME280;47427;51.976;5.326;2023-02-19T09:06:28;102215.47;;;8.72;100.00
45403;BME280;47427;51.976;5.326;2023-02-19T09:10:04;102210.38;;;8.75;100.00
45403;BME280;47427;51.976;5.326;2023-02-19T09:13:32;102217.94;;;8.85;100.00
45403;BME280;47427;51.976;5.326;2023-02-19T09:17:03;102214.22;;;8.97;100.00
45403;BME280;47427;51.976;5.326;2023-02-19T09:20:38;102205.44;;;9.13;100.00
45403;BME280;47427;51.976;5.326;2023-02-19T09:24:04;102229.88;;;9.79;100.00
45403;BME280;47427;51.976;5.326;2023-02-19T09:27:41;102232.78;;;9.50;100.00
45403;BME280;47427;51.976;5.326;2023-02-19T09:31:17;102207.09;;;9.27;100.00
45403;BME280;47427;51.976;5.326;2023-02-19T09:34:39;102227.88;;;9.24;100.00
45403;BME280;47427;51.976;5.326;2023-02-19T09:38:02;102239.66;;;9.48;100.00
45403;BME280;47427;51.976;5.326;2023-02-19T09:41:34;102271.00;;;9.30;100.00
45403;BME280;47427;51.976;5.326;2023-02-19T09:45:24;102270.50;;;9.21;100.00
45403;BME280;47427;51.976;5.326;2023-02-19T09:49:10;102286.00;;;9.33;100.00
45403;BME280;47427;51.976;5.326;2023-02-19T09:52:54;102290.75;;;9.57;100.00
45403;BME280;47427;51.976;5.326;2023-02-19T09:56:33;102294.59;;;9.47;100.00
45403;BME280;47427;51.976;5.326;2023-02-19T10:00:28;102303.28;;;9.79;100.00
45403;BME280;47427;51.976;5.326;2023-02-19T10:03:57;102302.56;;;9.65;100.00
45403;BME280;47427;51.976;5.326;2023-02-19T10:07:46;102302.63;;;9.66;100.00
45403;BME280;47427;51.976;5.326;2023-02-19T10:11:16;102311.69;;;10.40;100.00
45403;BME280;47427;51.976;5.326;2023-02-19T10:14:48;102312.25;;;12.41;100.00
45403;BME280;47427;51.976;5.326;2023-02-19T10:18:27;102322.09;;;11.65;100.00
45403;BME280;47427;51.976;5.326;2023-02-19T10:21:51;102338.03;;;11.13;100.00
45403;BME280;47427;51.976;5.326;2023-02-19T10:25:31;102333.03;;;11.00;100.00
45403;BME280;47427;51.976;5.326;2023-02-19T10:28:54;102342.78;;;10.67;100.00
45403;BME280;47427;51.976;5.326;2023-02-19T10:32:23;102344.88;;;10.56;100.00
45403;BME280;47427;51.976;5.326;2023-02-19T10:35:54;102363.72;;;10.31;100.00
45403;BME280;47427;51.976;5.326;2023-02-19T10:43:00;102372.66;;;9.85;100.00
45403;BME280;47427;51.976;5.326;2023-02-19T10:46:31;102378.13;;;9.73;100.00
45403;BME280;47427;51.976;5.326;2023-02-19T10:49:59;102367.66;;;9.73;100.00
45403;BME280;47427;51.976;5.326;2023-02-19T10:53:42;102380.28;;;9.81;100.00
45403;BME280;47427;51.976;5.326;2023-02-19T11:00:44;102378.78;;;10.02;100.00
45403;BME280;47427;51.976;5.326;2023-02-19T11:04:16;102372.75;;;10.03;100.00
45403;BME280;47427;51.976;5.326;2023-02-19T11:08:04;102364.19;;;9.74;100.00
45403;BME280;47427;51.976;5.326;2023-02-19T11:11:35;102353.91;;;9.77;100.00
45403;BME280;47427;51.976;5.326;2023-02-19T11:18:59;102353.53;;;10.37;100.00
45403;BME280;47427;51.976;5.326;2023-02-19T11:22:35;102358.81;;;10.55;100.00
45403;BME280;47427;51.976;5.326;2023-02-19T11:26:12;102365.66;;;10.35;100.00
45403;BME280;47427;51.976;5.326;2023-02-19T11:29:36;102371.72;;;10.17;100.00
45403;BME280;47427;51.976;5.326;2023-02-19T11:37:18;102374.94;;;9.79;100.00
45403;BME280;47427;51.976;5.326;2023-02-19T11:45:16;102373.47;;;9.37;100.00
45403;BME280;47427;51.976;5.326;2023-02-19T11:49:10;102379.16;;;9.44;100.00
45403;BME280;47427;51.976;5.326;2023-02-19T11:56:47;102378.63;;;9.66;100.00
45403;BME280;47427;51.976;5.326;2023-02-19T12:00:30;102378.41;;;9.47;100.00
45403;BME280;47427;51.976;5.326;2023-02-19T12:12:45;102372.25;;;9.77;100.00
45403;BME280;47427;51.976;5.326;2023-02-19T12:47:27;102374.13;;;9.01;100.00
45403;BME280;47427;51.976;5.326;2023-02-19T12:54:51;102403.28;;;9.07;100.00
45403;BME280;47427;51.976;5.326;2023-02-19T12:58:44;102416.38;;;8.93;100.00
45403;BME280;47427;51.976;5.326;2023-02-19T13:02:32;102420.34;;;8.86;100.00
45403;BME280;47427;51.976;5.326;2023-02-19T13:09:55;102419.44;;;9.15;100.00
45403;BME280;47427;51.976;5.326;2023-02-19T13:14:18;102422.47;;;9.38;100.00
45403;BME280;47427;51.976;5.326;2023-02-19T13:17:56;102426.88;;;9.39;100.00
45403;BME280;47427;51.976;5.326;2023-02-19T13:21:31;102445.72;;;9.17;100.00
45403;BME280;47427;51.976;5.326;2023-02-19T13:25:14;102448.69;;;9.23;100.00
45403;BME280;47427;51.976;5.326;2023-02-19T13:34:00;102451.63;;;9.29;100.00
45403;BME280;47427;51.976;5.326;2023-02-19T13:37:32;102453.91;;;9.23;100.00
45403;BME280;47427;51.976;5.326;2023-02-19T13:40:58;102456.00;;;9.14;100.00
45403;BME280;47427;51.976;5.326;2023-02-19T13:44:27;102461.97;;;8.96;100.00
45403;BME280;47427;51.976;5.326;2023-02-19T13:52:32;102480.56;;;8.56;100.00
45403;BME280;47427;51.976;5.326;2023-02-19T13:55:57;102481.19;;;8.39;100.00
45403;BME280;47427;51.976;5.326;2023-02-19T13:59:44;102489.72;;;8.21;100.00
45403;BME280;47427;51.976;5.326;2023-02-19T14:04:15;102494.16;;;8.09;100.00
45403;BME280;47427;51.976;5.326;2023-02-19T14:07:57;102505.34;;;8.07;100.00
45403;BME280;47427;51.976;5.326;2023-02-19T14:15:47;102504.69;;;7.82;100.00
45403;BME280;47427;51.976;5.326;2023-02-19T14:23:21;102514.34;;;7.84;100.00
45403;BME280;47427;51.976;5.326;2023-02-19T14:26:46;102513.13;;;7.78;100.00
45403;BME280;47427;51.976;5.326;2023-02-19T14:30:19;102512.81;;;7.87;100.00
45403;BME280;47427;51.976;5.326;2023-02-19T14:33:50;102506.75;;;8.01;100.00
45403;BME280;47427;51.976;5.326;2023-02-19T14:37:19;102504.31;;;8.04;100.00
45403;BME280;47427;51.976;5.326;2023-02-19T14:41:02;102498.91;;;8.01;100.00
45403;BME280;47427;51.976;5.326;2023-02-19T14:45:02;102500.59;;;8.14;100.00
45403;BME280;47427;51.976;5.326;2023-02-19T14:48:46;102486.19;;;8.21;100.00
45403;BME280;47427;51.976;5.326;2023-02-19T14:52:35;102479.34;;;8.23;100.00
45403;BME280;47427;51.976;5.326;2023-02-19T14:56:36;102490.38;;;8.32;100.00
45403;BME280;47427;51.976;5.326;2023-02-19T15:04:17;102487.75;;;8.32;100.00
45403;BME280;47427;51.976;5.326;2023-02-19T15:07:55;102473.88;;;8.33;100.00
45403;BME280;47427;51.976;5.326;2023-02-19T15:11:25;102467.47;;;8.28;100.00
45403;BME280;47427;51.976;5.326;2023-02-19T15:15:17;102476.91;;;8.39;100.00
45403;BME280;47427;51.976;5.326;2023-02-19T15:18:58;102479.13;;;8.33;100.00
45403;BME280;47427;51.976;5.326;2023-02-19T15:22:27;102479.97;;;8.19;100.00
45403;BME280;47427;51.976;5.326;2023-02-19T15:30:27;102505.69;;;8.26;100.00
45403;BME280;47427;51.976;5.326;2023-02-19T15:33:59;102511.22;;;8.17;100.00
45403;BME280;47427;51.976;5.326;2023-02-19T15:37:35;102498.44;;;7.94;100.00
45403;BME280;47427;51.976;5.326;2023-02-19T15:41:03;102525.66;;;7.97;100.00
45403;BME280;47427;51.976;5.326;2023-02-19T15:48:30;102542.69;;;7.91;100.00
45403;BME280;47427;51.976;5.326;2023-02-19T15:52:02;102530.91;;;7.84;100.00
45403;BME280;47427;51.976;5.326;2023-02-19T16:03:29;102526.22;;;7.65;100.00
45403;BME280;47427;51.976;5.326;2023-02-19T16:07:19;102544.97;;;7.59;100.00
45403;BME280;47427;51.976;5.326;2023-02-19T16:11:00;102554.06;;;7.65;100.00
45403;BME280;47427;51.976;5.326;2023-02-19T16:14:36;102561.88;;;7.51;100.00
45403;BME280;47427;51.976;5.326;2023-02-19T16:18:13;102575.81;;;7.38;100.00
45403;BME280;47427;51.976;5.326;2023-02-19T16:21:45;102567.84;;;7.24;100.00
45403;BME280;47427;51.976;5.326;2023-02-19T16:29:32;102577.91;;;7.18;100.00
45403;BME280;47427;51.976;5.326;2023-02-19T16:33:46;102584.72;;;7.15;100.00
45403;BME280;47427;51.976;5.326;2023-02-19T16:37:39;102578.78;;;7.05;100.00
45403;BME280;47427;51.976;5.326;2023-02-19T16:41:12;102567.59;;;6.94;100.00
45403;BME280;47427;51.976;5.326;2023-02-19T16:44:38;102579.28;;;6.99;100.00
45403;BME280;47427;51.976;5.326;2023-02-19T16:48:12;102580.94;;;6.99;100.00
45403;BME280;47427;51.976;5.326;2023-02-19T16:51:40;102584.03;;;6.93;100.00
45403;BME280;47427;51.976;5.326;2023-02-19T16:55:15;102589.25;;;6.93;100.00
45403;BME280;47427;51.976;5.326;2023-02-19T16:59:06;102580.22;;;6.88;100.00
45403;BME280;47427;51.976;5.326;2023-02-19T17:02:48;102586.94;;;6.84;100.00
45403;BME280;47427;51.976;5.326;2023-02-19T17:06:28;102585.81;;;6.81;100.00
45403;BME280;47427;51.976;5.326;2023-02-19T17:10:11;102587.84;;;6.85;100.00
45403;BME280;47427;51.976;5.326;2023-02-19T17:13:45;102590.03;;;6.79;100.00
45403;BME280;47427;51.976;5.326;2023-02-19T17:17:09;102575.13;;;6.64;100.00
45403;BME280;47427;51.976;5.326;2023-02-19T17:20:35;102574.91;;;6.61;100.00
45403;BME280;47427;51.976;5.326;2023-02-19T17:24:11;102574.03;;;6.49;100.00
45403;BME280;47427;51.976;5.326;2023-02-19T17:27:37;102578.59;;;6.40;100.00
45403;BME280;47427;51.976;5.326;2023-02-19T17:31:07;102590.03;;;6.54;100.00
45403;BME280;47427;51.976;5.326;2023-02-19T17:34:30;102590.78;;;6.53;100.00
45403;BME280;47427;51.976;5.326;2023-02-19T17:37:53;102605.88;;;6.57;100.00
45403;BME280;47427;51.976;5.326;2023-02-19T17:41:19;102603.97;;;6.54;100.00
45403;BME280;47427;51.976;5.326;2023-02-19T17:44:41;102611.88;;;6.56;100.00
45403;BME280;47427;51.976;5.326;2023-02-19T17:48:24;102623.00;;;6.53;100.00
45403;BME280;47427;51.976;5.326;2023-02-19T17:51:45;102615.84;;;6.50;100.00
45403;BME280;47427;51.976;5.326;2023-02-19T17:55:14;102622.78;;;6.50;100.00
45403;BME280;47427;51.976;5.326;2023-02-19T17:58:47;102642.25;;;6.55;100.00
45403;BME280;47427;51.976;5.326;2023-02-19T18:02:08;102641.16;;;6.51;100.00
45403;BME280;47427;51.976;5.326;2023-02-19T18:05:44;102633.22;;;6.50;100.00
45403;BME280;47427;51.976;5.326;2023-02-19T18:09:14;102622.44;;;6.45;100.00
45403;BME280;47427;51.976;5.326;2023-02-19T18:12:48;102623.13;;;6.43;100.00
45403;BME280;47427;51.976;5.326;2023-02-19T18:16:23;102626.34;;;6.39;100.00
45403;BME280;47427;51.976;5.326;2023-02-19T18:19:48;102620.34;;;6.28;100.00
45403;BME280;47427;51.976;5.326;2023-02-19T18:23:16;102621.06;;;6.14;100.00
45403;BME280;47427;51.976;5.326;2023-02-19T18:26:39;102614.03;;;6.01;100.00
45403;BME280;47427;51.976;5.326;2023-02-19T18:30:22;102611.31;;;5.88;100.00
45403;BME280;47427;51.976;5.326;2023-02-19T18:33:54;102612.66;;;5.82;100.00
45403;BME280;47427;51.976;5.326;2023-02-19T18:37:41;102610.72;;;5.68;100.00
45403;BME280;47427;51.976;5.326;2023-02-19T18:41:05;102616.41;;;5.62;100.00
45403;BME280;47427;51.976;5.326;2023-02-19T18:44:49;102607.44;;;5.47;100.00
45403;BME280;47427;51.976;5.326;2023-02-19T18:48:16;102613.50;;;5.36;100.00
45403;BME280;47427;51.976;5.326;2023-02-19T18:51:44;102623.13;;;5.25;100.00
45403;BME280;47427;51.976;5.326;2023-02-19T18:55:18;102627.50;;;5.14;100.00
45403;BME280;47427;51.976;5.326;2023-02-19T18:58:49;102627.94;;;5.09;100.00
45403;BME280;47427;51.976;5.326;2023-02-19T19:02:17;102625.31;;;5.09;100.00
45403;BME280;47427;51.976;5.326;2023-02-19T19:05:45;102629.84;;;4.99;100.00
45403;BME280;47427;51.976;5.326;2023-02-19T19:09:11;102618.72;;;4.90;100.00
45403;BME280;47427;51.976;5.326;2023-02-19T19:12:35;102605.69;;;4.78;100.00
45403;BME280;47427;51.976;5.326;2023-02-19T19:15:58;102612.44;;;4.76;100.00
45403;BME280;47427;51.976;5.326;2023-02-19T19:19:22;102619.66;;;4.69;100.00
45403;BME280;47427;51.976;5.326;2023-02-19T19:22:55;102633.56;;;4.69;100.00
45403;BME280;47427;51.976;5.326;2023-02-19T19:26:21;102635.56;;;4.62;100.00
45403;BME280;47427;51.976;5.326;2023-02-19T19:30:00;102637.34;;;4.63;100.00
45403;BME280;47427;51.976;5.326;2023-02-19T19:33:23;102630.88;;;4.57;100.00
45403;BME280;47427;51.976;5.326;2023-02-19T19:36:57;102657.25;;;4.62;100.00
45403;BME280;47427;51.976;5.326;2023-02-19T19:40:22;102650.13;;;4.60;100.00
45403;BME280;47427;51.976;5.326;2023-02-19T19:44:10;102641.47;;;4.49;100.00
45403;BME280;47427;51.976;5.326;2023-02-19T19:47:32;102642.13;;;4.46;100.00
45403;BME280;47427;51.976;5.326;2023-02-19T19:50:57;102647.19;;;4.45;100.00
45403;BME280;47427;51.976;5.326;2023-02-19T19:54:30;102633.06;;;4.41;100.00
45403;BME280;47427;51.976;5.326;2023-02-19T19:57:51;102643.22;;;4.38;100.00
45403;BME280;47427;51.976;5.326;2023-02-19T20:01:19;102648.03;;;4.33;100.00
45403;BME280;47427;51.976;5.326;2023-02-19T20:04:45;102634.06;;;4.21;100.00
45403;BME280;47427;51.976;5.326;2023-02-19T20:08:06;102630.25;;;4.28;100.00
45403;BME280;47427;51.976;5.326;2023-02-19T20:11:27;102638.69;;;4.25;100.00
45403;BME280;47427;51.976;5.326;2023-02-19T20:15:01;102648.00;;;4.11;100.00
45403;BME280;47427;51.976;5.326;2023-02-19T20:18:23;102635.84;;;4.00;100.00
45403;BME280;47427;51.976;5.326;2023-02-19T20:21:49;102629.06;;;4.02;100.00
45403;BME280;47427;51.976;5.326;2023-02-19T20:25:46;102639.09;;;3.98;100.00
45403;BME280;47427;51.976;5.326;2023-02-19T20:29:12;102604.44;;;3.87;100.00
45403;BME280;47427;51.976;5.326;2023-02-19T20:32:44;102618.44;;;3.99;100.00
45403;BME280;47427;51.976;5.326;2023-02-19T20:36:21;102621.16;;;4.01;100.00
45403;BME280;47427;51.976;5.326;2023-02-19T20:39:53;102614.53;;;3.94;100.00
45403;BME280;47427;51.976;5.326;2023-02-19T20:43:18;102618.63;;;4.12;100.00
45403;BME280;47427;51.976;5.326;2023-02-19T20:46:45;102613.16;;;4.20;100.00
45403;BME280;47427;51.976;5.326;2023-02-19T20:50:19;102610.44;;;4.18;100.00
45403;BME280;47427;51.976;5.326;2023-02-19T20:53:41;102612.44;;;4.10;100.00
45403;BME280;47427;51.976;5.326;2023-02-19T20:57:13;102616.44;;;4.07;100.00
45403;BME280;47427;51.976;5.326;2023-02-19T21:00:45;102620.78;;;3.96;100.00
45403;BME280;47427;51.976;5.326;2023-02-19T21:04:06;102628.81;;;3.99;100.00
45403;BME280;47427;51.976;5.326;2023-02-19T21:07:52;102631.97;;;3.95;100.00
45403;BME280;47427;51.976;5.326;2023-02-19T21:11:28;102619.34;;;3.89;100.00
45403;BME280;47427;51.976;5.326;2023-02-19T21:15:02;102598.97;;;3.94;100.00
45403;BME280;47427;51.976;5.326;2023-02-19T21:18:29;102576.88;;;3.99;100.00
45403;BME280;47427;51.976;5.326;2023-02-19T21:21:53;102578.72;;;4.00;100.00
45403;BME280;47427;51.976;5.326;2023-02-19T21:25:16;102586.97;;;4.06;100.00
45403;BME280;47427;51.976;5.326;2023-02-19T21:28:52;102584.00;;;4.02;100.00
45403;BME280;47427;51.976;5.326;2023-02-19T21:32:39;102582.63;;;3.95;100.00
45403;BME280;47427;51.976;5.326;2023-02-19T21:36:04;102597.53;;;3.98;100.00
45403;BME280;47427;51.976;5.326;2023-02-19T21:39:31;102593.53;;;3.91;100.00
45403;BME280;47427;51.976;5.326;2023-02-19T21:42:54;102599.38;;;3.88;100.00
45403;BME280;47427;51.976;5.326;2023-02-19T21:46:23;102610.03;;;3.81;100.00